Bristol, Colorado
Current Conditions -  °F | °C
As of 10:15 AM on Wednesday 26 Nov 2014 (Local Time) from K3K3 Reporting Station
Clear Clear  
Wind Chill: 35°   Ceiling: Unl
Heat Index: 43°   Visibility: 10mi
Dew Point: 28°   Wind: 17mph
Humidity: 57%   Direction: 350°N
Pressure: 30.28"   Gusts: NA
Location:  37.8253°N, 102.163°W
Report Text: K3K3 261715Z AUTO 35015KT 10SM CLR 06/M02 A3028 RMK AO2
Loading
Personal Weather Stations






























Interactive Weather Map New forecast layout! Learn more

10-Day Weather Forecast

Advertisements
Track Severe Weather on mobile